Noble, Nebraska
Current Conditions -  °F | °C
As of 8:53 AM on Wednesday 22 Oct 2014 (Local Time) from KODX Reporting Station
Haze Haze  
Wind Chill: 57°   Ceiling: Unl
Heat Index: 57°   Visibility: 6mi
Dew Point: 54°   Wind: 8mph
Humidity: 89%   Direction: 130°SE
Pressure: 29.95"   Gusts: NA
Location:  41.579°N, 98.9733°W
Report Text: KODX 221353Z AUTO 13007KT 6SM BR CLR 14/12 A2995 RMK AO2 SLP140 T01390122
Loading
Personal Weather Stations






























Interactive Weather Map
Tropical Storm Tracking
New forecast layout! Learn more

10-Day Weather Forecast

Advertisements
Track Severe Weather on mobile